createdAt,value
2023-02-19T00:00:51.509Z,1010.74
2023-02-19T00:01:51.492Z,1010.74
2023-02-19T00:02:51.486Z,1010.75
2023-02-19T00:03:51.488Z,1010.65
2023-02-19T00:04:51.490Z,1010.75
2023-02-19T00:05:51.455Z,1010.76
2023-02-19T00:06:51.458Z,1010.72
2023-02-19T00:07:51.434Z,1010.75
2023-02-19T00:08:51.447Z,1010.82
2023-02-19T00:09:51.404Z,1010.80
2023-02-19T00:10:51.451Z,1010.79
2023-02-19T00:11:51.409Z,1010.71
2023-02-19T00:12:51.384Z,1010.68
2023-02-19T00:13:51.375Z,1010.72
2023-02-19T00:14:51.355Z,1010.66
2023-02-19T00:15:51.378Z,1010.56
2023-02-19T00:16:51.387Z,1010.59
2023-02-19T00:17:51.331Z,1010.61
2023-02-19T00:18:51.325Z,1010.60
2023-02-19T00:19:51.322Z,1010.57
2023-02-19T00:20:51.334Z,1010.60
2023-02-19T00:21:51.290Z,1010.58
2023-02-19T00:22:51.267Z,1010.57
2023-02-19T00:23:51.269Z,1010.47
2023-02-19T00:24:51.252Z,1010.61
2023-02-19T00:25:51.237Z,1010.61
2023-02-19T00:26:51.232Z,1010.60
2023-02-19T00:27:51.226Z,1010.58
2023-02-19T00:28:51.236Z,1010.57
2023-02-19T00:29:51.188Z,1010.50
2023-02-19T00:30:51.195Z,1010.59
2023-02-19T00:31:51.371Z,1010.52
2023-02-19T00:32:51.168Z,1010.58
2023-02-19T00:33:51.167Z,1010.49
2023-02-19T00:34:51.155Z,1010.60
2023-02-19T00:35:51.139Z,1010.54
2023-02-19T00:36:51.121Z,1010.54
2023-02-19T00:37:51.110Z,1010.43
2023-02-19T00:38:51.112Z,1010.52
2023-02-19T00:39:51.096Z,1010.52
2023-02-19T00:40:51.081Z,1010.49
2023-02-19T00:41:51.063Z,1010.47
2023-02-19T00:42:51.052Z,1010.53
2023-02-19T00:43:51.053Z,1010.53
2023-02-19T00:44:51.027Z,1010.58
2023-02-19T00:45:51.023Z,1010.48
2023-02-19T00:46:51.006Z,1010.51
2023-02-19T00:47:51.029Z,1010.57
2023-02-19T00:48:50.997Z,1010.51
2023-02-19T00:49:51.007Z,1010.50
2023-02-19T00:50:50.961Z,1010.55
2023-02-19T00:51:50.965Z,1010.51
2023-02-19T00:52:50.963Z,1010.37
2023-02-19T00:53:50.963Z,1010.44
2023-02-19T00:54:50.951Z,1010.42
2023-02-19T00:55:50.956Z,1010.48
2023-02-19T00:56:50.928Z,1010.51
2023-02-19T00:57:50.926Z,1010.44
2023-02-19T00:58:50.938Z,1010.46
2023-02-19T00:59:50.929Z,1010.45
2023-02-19T01:00:50.880Z,1010.39
2023-02-19T01:01:51.015Z,1010.43
2023-02-19T01:02:50.880Z,1010.40
2023-02-19T01:03:50.856Z,1010.54
2023-02-19T01:04:50.844Z,1010.43
2023-02-19T01:05:50.822Z,1010.37
2023-02-19T01:06:50.796Z,1010.39
2023-02-19T01:07:50.780Z,1010.39
2023-02-19T01:08:50.795Z,1010.33
2023-02-19T01:09:50.782Z,1010.41
2023-02-19T01:10:50.747Z,1010.38
2023-02-19T01:11:50.754Z,1010.34
2023-02-19T01:12:50.724Z,1010.34
2023-02-19T01:13:50.741Z,1010.31
2023-02-19T01:14:50.710Z,1010.29
2023-02-19T01:15:50.736Z,1010.31
2023-02-19T01:16:50.697Z,1010.32
2023-02-19T01:17:50.694Z,1010.35
2023-02-19T01:18:50.692Z,1010.34
2023-02-19T01:19:50.661Z,1010.40
2023-02-19T01:20:50.653Z,1010.35
2023-02-19T01:21:50.632Z,1010.35
2023-02-19T01:22:50.624Z,1010.32
2023-02-19T01:23:50.653Z,1010.33
2023-02-19T01:24:50.603Z,1010.42
2023-02-19T01:25:50.613Z,1010.40
2023-02-19T01:26:50.571Z,1010.39
2023-02-19T01:27:50.574Z,1010.40
2023-02-19T01:28:50.597Z,1010.33
2023-02-19T01:29:50.561Z,1010.32
2023-02-19T01:30:50.578Z,1010.30
2023-02-19T01:31:50.592Z,1010.40
2023-02-19T01:32:50.514Z,1010.28
2023-02-19T01:33:50.525Z,1010.26
2023-02-19T01:34:50.533Z,1010.20
2023-02-19T01:35:50.486Z,1010.30
2023-02-19T01:36:50.468Z,1010.26
2023-02-19T01:37:50.461Z,1010.23
2023-02-19T01:38:50.460Z,1010.33
2023-02-19T01:39:50.454Z,1010.29
2023-02-19T01:40:50.422Z,1010.29
2023-02-19T01:41:50.423Z,1010.29
2023-02-19T01:42:50.408Z,1010.23
2023-02-19T01:43:50.408Z,1010.27
2023-02-19T01:44:50.377Z,1010.32
2023-02-19T01:45:50.379Z,1010.24
2023-02-19T01:46:50.473Z,1010.18
2023-02-19T01:47:50.359Z,1010.24
2023-02-19T01:48:50.354Z,1010.24
2023-02-19T01:49:50.333Z,1010.24
2023-02-19T01:50:50.323Z,1010.26
2023-02-19T01:51:50.311Z,1010.24
2023-02-19T01:52:50.325Z,1010.19
2023-02-19T01:53:50.316Z,1010.11
2023-02-19T01:54:50.279Z,1010.16
2023-02-19T01:55:50.336Z,1010.14
2023-02-19T01:56:50.260Z,1010.17
2023-02-19T01:57:50.242Z,1010.16
2023-02-19T01:58:50.245Z,1010.19
2023-02-19T01:59:50.229Z,1010.20
2023-02-19T02:00:50.269Z,1010.18
2023-02-19T02:01:50.268Z,1010.16
2023-02-19T02:02:50.187Z,1010.22
2023-02-19T02:03:50.229Z,1010.13
2023-02-19T02:04:50.168Z,1010.18
2023-02-19T02:05:50.170Z,1010.01
2023-02-19T02:06:50.144Z,1010.19
2023-02-19T02:07:50.147Z,1010.16
2023-02-19T02:08:50.140Z,1010.19
2023-02-19T02:09:50.124Z,1010.27
2023-02-19T02:10:50.122Z,1010.15
2023-02-19T02:11:50.102Z,1010.23
2023-02-19T02:12:50.081Z,1010.15
2023-02-19T02:13:50.090Z,1010.17
2023-02-19T02:14:50.070Z,1010.10
2023-02-19T02:15:50.049Z,1010.21
2023-02-19T02:16:50.036Z,1010.16
2023-02-19T02:17:50.038Z,1010.23
2023-02-19T02:18:50.033Z,1010.15
2023-02-19T02:19:50.013Z,1010.16
2023-02-19T02:20:50.009Z,1010.10
2023-02-19T02:21:49.999Z,1010.10
2023-02-19T02:22:49.977Z,1010.13
2023-02-19T02:23:49.985Z,1010.12
2023-02-19T02:24:49.968Z,1010.12
2023-02-19T02:25:49.951Z,1010.04
2023-02-19T02:26:49.938Z,1010.09
2023-02-19T02:27:49.928Z,1010.10
2023-02-19T02:28:49.943Z,1010.00
2023-02-19T02:29:49.901Z,1010.10
2023-02-19T02:30:49.890Z,1010.11
2023-02-19T02:31:50.069Z,1010.12
2023-02-19T02:32:49.865Z,1010.09
2023-02-19T02:33:49.874Z,1010.11
2023-02-19T02:34:49.859Z,1010.01
2023-02-19T02:35:49.848Z,1010.11
2023-02-19T02:36:49.862Z,1010.05
2023-02-19T02:37:49.823Z,1010.09
2023-02-19T02:38:49.820Z,1010.13
2023-02-19T02:39:49.793Z,1010.14
2023-02-19T02:40:49.783Z,1010.05
2023-02-19T02:41:49.783Z,1010.04
2023-02-19T02:42:49.770Z,1010.05
2023-02-19T02:43:49.782Z,1010.05
2023-02-19T02:44:49.737Z,1009.96
2023-02-19T02:45:49.835Z,1010.07
2023-02-19T02:46:49.717Z,1009.94
2023-02-19T02:47:49.714Z,1010.05
2023-02-19T02:48:49.703Z,1010.00
2023-02-19T02:49:49.702Z,1010.01
2023-02-19T02:50:49.671Z,1010.00
2023-02-19T02:51:49.666Z,1010.02
2023-02-19T02:52:49.650Z,1010.00
2023-02-19T02:53:49.660Z,1009.97
2023-02-19T02:54:49.630Z,1009.99
2023-02-19T02:55:49.624Z,1009.95
2023-02-19T02:56:49.611Z,1009.90
2023-02-19T02:57:49.603Z,1010.01
2023-02-19T02:58:49.600Z,1010.04
2023-02-19T02:59:49.580Z,1010.05
2023-02-19T03:00:49.623Z,1009.99
2023-02-19T03:01:49.638Z,1009.97
2023-02-19T03:02:49.548Z,1010.04
2023-02-19T03:03:49.569Z,1009.93
2023-02-19T03:04:49.519Z,1009.96
2023-02-19T03:05:49.566Z,1009.89
2023-02-19T03:06:49.502Z,1010.00
2023-02-19T03:07:49.494Z,1010.04
2023-02-19T03:08:49.531Z,1010.00
2023-02-19T03:09:49.766Z,1009.97
2023-02-19T03:10:49.496Z,1009.89
2023-02-19T03:11:49.457Z,1009.98
2023-02-19T03:12:49.450Z,1009.88
2023-02-19T03:13:49.460Z,1009.96
2023-02-19T03:14:49.425Z,1009.98
2023-02-19T03:15:49.412Z,1010.03
2023-02-19T03:16:49.411Z,1010.07
2023-02-19T03:17:49.397Z,1009.92
2023-02-19T03:18:49.387Z,1010.04
2023-02-19T03:19:49.376Z,1010.01
2023-02-19T03:20:49.355Z,1009.95
2023-02-19T03:21:49.355Z,1010.02
2023-02-19T03:22:49.325Z,1010.13
2023-02-19T03:23:49.341Z,1010.10
2023-02-19T03:24:49.311Z,1010.06
2023-02-19T03:25:49.306Z,1010.11
2023-02-19T03:26:49.284Z,1010.16
2023-02-19T03:27:49.288Z,1010.10
2023-02-19T03:28:49.272Z,1010.16
2023-02-19T03:29:49.255Z,1010.17
2023-02-19T03:30:49.247Z,1010.20
2023-02-19T03:31:49.324Z,1010.15
2023-02-19T03:32:49.225Z,1010.18
2023-02-19T03:33:49.248Z,1010.16
2023-02-19T03:34:49.206Z,1010.22
2023-02-19T03:35:49.192Z,1010.18
2023-02-19T03:36:49.172Z,1010.14
2023-02-19T03:37:49.174Z,1010.13
2023-02-19T03:38:49.169Z,1010.07
2023-02-19T03:39:49.153Z,1010.23
2023-02-19T03:40:49.132Z,1010.20
2023-02-19T03:41:49.128Z,1010.24
2023-02-19T03:42:49.125Z,1010.27
2023-02-19T03:43:49.119Z,1010.20
2023-02-19T03:44:49.089Z,1010.23
2023-02-19T03:45:49.150Z,1010.29
2023-02-19T03:46:49.069Z,1010.30
2023-02-19T03:47:49.066Z,1010.31
2023-02-19T03:48:49.065Z,1010.34
2023-02-19T03:49:49.240Z,1010.32
2023-02-19T03:50:49.036Z,1010.35
2023-02-19T03:51:49.024Z,1010.34
2023-02-19T03:52:49.010Z,1010.35
2023-02-19T03:53:49.021Z,1010.40
2023-02-19T03:54:48.983Z,1010.31
2023-02-19T03:55:48.984Z,1010.34
2023-02-19T03:56:48.979Z,1010.41
2023-02-19T03:57:48.965Z,1010.33
2023-02-19T03:58:48.961Z,1010.37
2023-02-19T03:59:48.934Z,1010.42
2023-02-19T04:00:48.921Z,1010.39
2023-02-19T04:01:48.912Z,1010.42
2023-02-19T04:02:48.910Z,1010.46
2023-02-19T04:03:48.911Z,1010.42
2023-02-19T04:04:49.029Z,1010.46
2023-02-19T04:05:48.871Z,1010.44
2023-02-19T04:06:48.859Z,1010.50
2023-02-19T04:07:48.872Z,1010.42
2023-02-19T04:08:48.877Z,1010.50
2023-02-19T04:09:48.853Z,1010.54
2023-02-19T04:10:48.812Z,1010.56
2023-02-19T04:11:48.829Z,1010.49
2023-02-19T04:12:48.790Z,1010.52
2023-02-19T04:13:48.810Z,1010.54
2023-02-19T04:14:48.771Z,1010.54
2023-02-19T04:15:48.772Z,1010.60
2023-02-19T04:16:48.780Z,1010.58
2023-02-19T04:17:48.740Z,1010.61
2023-02-19T04:18:48.745Z,1010.62
2023-02-19T04:19:48.739Z,1010.58
2023-02-19T04:20:48.716Z,1010.67
2023-02-19T04:21:48.712Z,1010.68
2023-02-19T04:22:48.701Z,1010.69
2023-02-19T04:23:48.694Z,1010.69
2023-02-19T04:24:48.668Z,1010.74
2023-02-19T04:25:48.690Z,1010.73
2023-02-19T04:26:48.639Z,1010.72
2023-02-19T04:27:48.640Z,1010.70
2023-02-19T04:28:48.639Z,1010.78
2023-02-19T04:29:48.628Z,1010.74
2023-02-19T04:30:48.619Z,1010.71
2023-02-19T04:31:48.634Z,1010.77
2023-02-19T04:32:48.577Z,1010.75
2023-02-19T04:33:48.577Z,1010.72
2023-02-19T04:34:48.558Z,1010.69
2023-02-19T04:35:48.546Z,1010.77
2023-02-19T04:36:48.550Z,1010.79
2023-02-19T04:37:48.520Z,1010.84
2023-02-19T04:38:48.518Z,1010.79
2023-02-19T04:39:48.511Z,1010.89
2023-02-19T04:40:48.483Z,1010.86
2023-02-19T04:41:48.474Z,1010.85
2023-02-19T04:42:48.460Z,1010.81
2023-02-19T04:43:48.469Z,1010.91
2023-02-19T04:44:48.448Z,1010.92
2023-02-19T04:45:48.450Z,1010.91
2023-02-19T04:46:48.417Z,1010.90
2023-02-19T04:47:48.411Z,1010.94
2023-02-19T04:48:48.415Z,1011.00
2023-02-19T04:49:48.390Z,1011.04
2023-02-19T04:50:48.375Z,1011.02
2023-02-19T04:51:48.369Z,1011.01
2023-02-19T04:52:48.370Z,1011.07
2023-02-19T04:53:48.353Z,1011.07
2023-02-19T04:54:48.343Z,1011.08
2023-02-19T04:55:48.336Z,1010.98
2023-02-19T04:56:48.312Z,1011.08
2023-02-19T04:57:48.298Z,1011.08
2023-02-19T04:58:48.315Z,1011.05
2023-02-19T04:59:48.285Z,1011.14
2023-02-19T05:00:48.273Z,1011.14
2023-02-19T05:01:48.276Z,1011.15
2023-02-19T05:02:48.289Z,1011.09
2023-02-19T05:03:48.248Z,1011.14
2023-02-19T05:04:48.243Z,1011.00
2023-02-19T05:05:48.239Z,1011.03
2023-02-19T05:06:48.229Z,1011.08
2023-02-19T05:07:48.199Z,1011.05
2023-02-19T05:08:48.200Z,1011.07
2023-02-19T05:09:48.176Z,1011.13
2023-02-19T05:10:48.172Z,1011.11
2023-02-19T05:11:48.162Z,1011.14
2023-02-19T05:12:48.150Z,1011.08
2023-02-19T05:13:48.137Z,1011.18
2023-02-19T05:14:48.156Z,1011.10
2023-02-19T05:15:48.143Z,1011.11
2023-02-19T05:16:48.230Z,1011.11
2023-02-19T05:17:48.086Z,1011.17
2023-02-19T05:18:48.107Z,1011.14
2023-02-19T05:19:48.075Z,1011.22
2023-02-19T05:20:48.086Z,1011.18
2023-02-19T05:21:48.051Z,1011.15
2023-02-19T05:22:48.055Z,1011.21
2023-02-19T05:23:48.032Z,1011.24
2023-02-19T05:24:48.016Z,1011.30
2023-02-19T05:25:48.000Z,1011.28
2023-02-19T05:26:47.992Z,1011.29
2023-02-19T05:27:47.993Z,1011.30
2023-02-19T05:28:47.981Z,1011.22
2023-02-19T05:29:47.967Z,1011.30
2023-02-19T05:30:47.971Z,1011.35
2023-02-19T05:31:48.040Z,1011.37
2023-02-19T05:32:47.945Z,1011.31
2023-02-19T05:33:47.938Z,1011.33
2023-02-19T05:34:47.914Z,1011.31
2023-02-19T05:35:47.905Z,1011.38
2023-02-19T05:36:47.893Z,1011.35
2023-02-19T05:37:47.866Z,1011.41
2023-02-19T05:38:47.922Z,1011.38
2023-02-19T05:39:47.855Z,1011.50
2023-02-19T05:40:47.844Z,1011.52
2023-02-19T05:41:47.831Z,1011.47
2023-02-19T05:42:47.835Z,1011.52
2023-02-19T05:43:47.818Z,1011.45
2023-02-19T05:44:47.802Z,1011.53
2023-02-19T05:45:47.787Z,1011.57
2023-02-19T05:46:47.779Z,1011.59
2023-02-19T05:47:47.784Z,1011.58
2023-02-19T05:48:47.769Z,1011.54
2023-02-19T05:49:47.744Z,1011.54
2023-02-19T05:50:47.745Z,1011.60
2023-02-19T05:51:47.729Z,1011.64
2023-02-19T05:52:47.712Z,1011.63
2023-02-19T05:53:47.724Z,1011.56
2023-02-19T05:54:47.697Z,1011.64
2023-02-19T05:55:47.673Z,1011.61
2023-02-19T05:56:47.687Z,1011.64
2023-02-19T05:57:47.660Z,1011.65
2023-02-19T05:58:47.672Z,1011.66
2023-02-19T05:59:47.632Z,1011.70
2023-02-19T06:00:47.626Z,1011.70
2023-02-19T06:01:47.613Z,1011.74
2023-02-19T06:02:47.634Z,1011.73
2023-02-19T06:03:47.610Z,1011.74
2023-02-19T06:04:47.606Z,1011.72
2023-02-19T06:05:47.586Z,1011.77
2023-02-19T06:06:47.599Z,1011.80
2023-02-19T06:07:47.550Z,1011.84
2023-02-19T06:08:47.575Z,1011.86
2023-02-19T06:09:47.530Z,1011.85
2023-02-19T06:10:47.485Z,1011.92
2023-02-19T06:11:47.485Z,1011.86
2023-02-19T06:12:47.450Z,1011.96
2023-02-19T06:13:47.448Z,1011.93
2023-02-19T06:14:47.422Z,1011.95
2023-02-19T06:15:47.463Z,1011.86
2023-02-19T06:16:47.396Z,1011.96
2023-02-19T06:17:47.438Z,1011.91
2023-02-19T06:18:47.394Z,1011.96
2023-02-19T06:19:47.397Z,1011.96
2023-02-19T06:20:47.388Z,1011.94
2023-02-19T06:21:47.337Z,1012.04
2023-02-19T06:22:47.341Z,1012.00
2023-02-19T06:23:47.335Z,1012.00
2023-02-19T06:24:47.325Z,1011.95
2023-02-19T06:25:47.318Z,1012.01
2023-02-19T06:26:47.296Z,1011.99
2023-02-19T06:27:47.287Z,1012.03
2023-02-19T06:28:47.294Z,1012.00
2023-02-19T06:29:47.256Z,1012.01
2023-02-19T06:30:47.250Z,1012.03
2023-02-19T06:31:47.322Z,1012.05
2023-02-19T06:32:47.245Z,1012.05
2023-02-19T06:33:47.246Z,1012.06
2023-02-19T06:34:47.216Z,1012.19
2023-02-19T06:35:47.198Z,1012.09
2023-02-19T06:36:47.205Z,1012.02
2023-02-19T06:37:47.173Z,1012.09
2023-02-19T06:38:47.183Z,1012.04
2023-02-19T06:39:47.173Z,1012.07
2023-02-19T06:40:47.160Z,1012.07
2023-02-19T06:41:47.130Z,1012.13
2023-02-19T06:42:47.124Z,1012.16
2023-02-19T06:43:47.121Z,1012.14
2023-02-19T06:44:47.103Z,1012.17
2023-02-19T06:45:47.124Z,1012.09
2023-02-19T06:46:47.108Z,1012.13
2023-02-19T06:47:47.084Z,1012.16
2023-02-19T06:48:47.086Z,1012.21
2023-02-19T06:49:47.048Z,1012.21
2023-02-19T06:50:47.043Z,1012.24
2023-02-19T06:51:47.044Z,1012.24
2023-02-19T06:52:47.014Z,1012.32
2023-02-19T06:53:47.015Z,1012.32
2023-02-19T06:54:47.009Z,1012.34
2023-02-19T06:55:46.979Z,1012.25
2023-02-19T06:56:47.234Z,1012.36
2023-02-19T06:57:46.959Z,1012.40
2023-02-19T06:58:46.963Z,1012.40
2023-02-19T06:59:46.945Z,1012.42
2023-02-19T07:00:47.011Z,1012.42
2023-02-19T07:01:46.923Z,1012.42
2023-02-19T07:02:46.946Z,1012.45
2023-02-19T07:03:46.950Z,1012.48
2023-02-19T07:04:46.896Z,1012.49
2023-02-19T07:05:46.877Z,1012.50
2023-02-19T07:06:46.901Z,1012.50
2023-02-19T07:07:46.870Z,1012.50
2023-02-19T07:08:46.861Z,1012.55
2023-02-19T07:09:46.834Z,1012.52
2023-02-19T07:10:46.850Z,1012.55
2023-02-19T07:11:46.802Z,1012.56
2023-02-19T07:12:46.808Z,1012.57
2023-02-19T07:13:46.808Z,1012.63
2023-02-19T07:14:46.786Z,1012.64
2023-02-19T07:15:46.758Z,1012.68
2023-02-19T07:16:46.771Z,1012.67
2023-02-19T07:17:46.749Z,1012.71
2023-02-19T07:18:46.751Z,1012.72
2023-02-19T07:19:46.713Z,1012.72
2023-02-19T07:20:46.722Z,1012.80
2023-02-19T07:21:46.725Z,1012.76
2023-02-19T07:22:46.697Z,1012.80
2023-02-19T07:23:46.682Z,1012.80
2023-02-19T07:24:47.956Z,1012.82
2023-02-19T07:25:46.763Z,1012.75
2023-02-19T07:26:46.649Z,1012.88
2023-02-19T07:27:46.626Z,1012.89
2023-02-19T07:28:46.650Z,1012.91
2023-02-19T07:29:46.611Z,1012.96
2023-02-19T07:30:46.653Z,1012.91
2023-02-19T07:31:46.621Z,1012.96
2023-02-19T07:32:46.592Z,1012.90
2023-02-19T07:33:46.577Z,1012.94
2023-02-19T07:34:46.566Z,1012.91
2023-02-19T07:35:46.562Z,1012.98
2023-02-19T07:36:46.551Z,1013.01
2023-02-19T07:37:46.520Z,1013.02
2023-02-19T07:38:46.548Z,1013.05
2023-02-19T07:39:46.520Z,1013.04
2023-02-19T07:40:46.495Z,1013.13
2023-02-19T07:41:46.481Z,1013.11
2023-02-19T07:42:46.491Z,1013.15
2023-02-19T07:43:46.484Z,1013.19
2023-02-19T07:44:46.467Z,1013.21
2023-02-19T07:45:46.465Z,1013.20
2023-02-19T07:46:46.443Z,1013.22
2023-02-19T07:47:46.450Z,1013.21
2023-02-19T07:48:46.430Z,1013.23
2023-02-19T07:49:46.409Z,1013.26
2023-02-19T07:50:46.422Z,1013.25
2023-02-19T07:51:46.387Z,1013.35
2023-02-19T07:52:46.382Z,1013.37
2023-02-19T07:53:46.371Z,1013.36
2023-02-19T07:54:46.355Z,1013.34
2023-02-19T07:55:46.347Z,1013.38
2023-02-19T07:56:46.323Z,1013.37
2023-02-19T07:57:46.308Z,1013.33
2023-02-19T07:58:46.332Z,1013.37
2023-02-19T07:59:46.292Z,1013.29
2023-02-19T08:00:46.364Z,1013.36
2023-02-19T08:01:46.300Z,1013.35
2023-02-19T08:02:46.278Z,1013.42
2023-02-19T08:03:48.185Z,1013.35
2023-02-19T08:04:46.278Z,1013.44
2023-02-19T08:05:46.258Z,1013.44
2023-02-19T08:06:46.230Z,1013.48
2023-02-19T08:07:46.203Z,1013.49
2023-02-19T08:08:46.235Z,1013.43
2023-02-19T08:09:46.183Z,1013.54
2023-02-19T08:10:46.174Z,1013.61
2023-02-19T08:11:46.159Z,1013.59
2023-02-19T08:12:46.169Z,1013.57
2023-02-19T08:13:46.173Z,1013.59
2023-02-19T08:14:46.149Z,1013.64
2023-02-19T08:15:46.116Z,1013.62
2023-02-19T08:16:46.168Z,1013.68
2023-02-19T08:17:46.111Z,1013.66
2023-02-19T08:18:46.103Z,1013.63
2023-02-19T08:19:46.080Z,1013.67
2023-02-19T08:20:46.078Z,1013.63
2023-02-19T08:21:46.080Z,1013.63
2023-02-19T08:22:46.074Z,1013.66
2023-02-19T08:23:46.067Z,1013.66
2023-02-19T08:24:46.025Z,1013.73
2023-02-19T08:25:46.014Z,1013.70
2023-02-19T08:26:46.056Z,1013.72
2023-02-19T08:27:46.003Z,1013.76
2023-02-19T08:28:46.023Z,1013.75
2023-02-19T08:29:45.980Z,1013.78
2023-02-19T08:30:46.120Z,1013.77
2023-02-19T08:31:46.056Z,1013.78
2023-02-19T08:32:45.966Z,1013.82
2023-02-19T08:33:45.935Z,1013.87
2023-02-19T08:34:45.919Z,1013.84
2023-02-19T08:35:45.913Z,1013.86
2023-02-19T08:36:45.911Z,1013.93
2023-02-19T08:37:45.879Z,1013.90
2023-02-19T08:38:45.887Z,1013.93
2023-02-19T08:39:45.856Z,1013.92
2023-02-19T08:40:45.848Z,1013.95
2023-02-19T08:41:45.848Z,1013.92
2023-02-19T08:42:45.834Z,1013.96
2023-02-19T08:43:45.826Z,1014.01
2023-02-19T08:44:45.805Z,1014.01
2023-02-19T08:45:45.844Z,1014.03
2023-02-19T08:46:45.796Z,1014.04
2023-02-19T08:47:45.792Z,1014.02
2023-02-19T08:48:45.767Z,1014.00
2023-02-19T08:49:45.747Z,1014.07
2023-02-19T08:50:45.740Z,1014.06
2023-02-19T08:51:45.778Z,1014.01
2023-02-19T08:52:45.724Z,1014.07
2023-02-19T08:53:45.729Z,1014.05
2023-02-19T08:54:45.709Z,1014.08
2023-02-19T08:55:45.694Z,1014.05
2023-02-19T08:56:45.690Z,1014.07
2023-02-19T08:57:45.671Z,1014.05
2023-02-19T08:58:45.678Z,1014.03
2023-02-19T08:59:45.635Z,1014.07
2023-02-19T09:00:45.647Z,1014.08
2023-02-19T09:01:45.744Z,1014.08
2023-02-19T09:02:45.608Z,1014.08
2023-02-19T09:03:45.631Z,1014.05
2023-02-19T09:04:45.608Z,1014.09
2023-02-19T09:05:45.568Z,1014.13
2023-02-19T09:06:45.587Z,1014.14
2023-02-19T09:07:45.547Z,1014.16
2023-02-19T09:08:45.588Z,1014.15
2023-02-19T09:09:45.542Z,1014.15
2023-02-19T09:10:45.525Z,1014.15
2023-02-19T09:11:46.934Z,1014.15
2023-02-19T09:12:45.512Z,1014.13
2023-02-19T09:13:45.511Z,1014.22
2023-02-19T09:14:45.471Z,1014.21
2023-02-19T09:15:45.500Z,1014.18
2023-02-19T09:16:45.464Z,1014.19
2023-02-19T09:17:45.447Z,1014.18
2023-02-19T09:18:45.460Z,1014.18
2023-02-19T09:19:45.443Z,1014.20
2023-02-19T09:20:45.416Z,1014.18
2023-02-19T09:21:45.414Z,1014.19
2023-02-19T09:22:45.387Z,1014.23
2023-02-19T09:23:45.414Z,1014.23
2023-02-19T09:24:45.372Z,1014.25
2023-02-19T09:25:45.379Z,1014.29
2023-02-19T09:26:45.364Z,1014.27
2023-02-19T09:27:45.340Z,1014.26
2023-02-19T09:28:45.340Z,1014.29
2023-02-19T09:29:45.321Z,1014.30
2023-02-19T09:30:45.348Z,1014.28
2023-02-19T09:31:45.392Z,1014.25
2023-02-19T09:32:45.282Z,1014.27
2023-02-19T09:33:45.294Z,1014.24
2023-02-19T09:34:45.268Z,1014.25
2023-02-19T09:35:45.260Z,1014.33
2023-02-19T09:36:45.238Z,1014.32
2023-02-19T09:37:45.273Z,1014.38
2023-02-19T09:38:45.236Z,1014.37
2023-02-19T09:39:45.213Z,1014.35
2023-02-19T09:40:45.200Z,1014.38
2023-02-19T09:41:45.207Z,1014.39
2023-02-19T09:42:45.178Z,1014.41
2023-02-19T09:43:45.186Z,1014.44
2023-02-19T09:44:45.158Z,1014.46
2023-02-19T09:45:45.147Z,1014.40
2023-02-19T09:46:45.139Z,1014.40
2023-02-19T09:47:45.128Z,1014.39
2023-02-19T09:48:45.125Z,1014.42
2023-02-19T09:49:45.109Z,1014.44
2023-02-19T09:50:45.092Z,1014.47
2023-02-19T09:51:45.111Z,1014.52
2023-02-19T09:52:45.068Z,1014.51
2023-02-19T09:53:45.086Z,1014.53
2023-02-19T09:54:45.062Z,1014.60
2023-02-19T09:55:45.062Z,1014.55
2023-02-19T09:56:45.039Z,1014.48
2023-02-19T09:57:45.027Z,1014.60
2023-02-19T09:58:45.024Z,1014.66
2023-02-19T09:59:44.997Z,1014.68
2023-02-19T10:00:44.997Z,1014.64
2023-02-19T10:01:45.015Z,1014.67
2023-02-19T10:02:44.962Z,1014.64
2023-02-19T10:03:44.975Z,1014.68
2023-02-19T10:04:44.988Z,1014.65
2023-02-19T10:05:44.944Z,1014.66
2023-02-19T10:06:44.920Z,1014.68
2023-02-19T10:07:44.919Z,1014.70
2023-02-19T10:08:44.904Z,1014.66
2023-02-19T10:09:44.889Z,1014.72
2023-02-19T10:10:44.875Z,1014.73
2023-02-19T10:11:44.874Z,1014.74
2023-02-19T10:12:44.869Z,1014.75
2023-02-19T10:13:44.869Z,1014.70
2023-02-19T10:14:44.839Z,1014.68
2023-02-19T10:15:44.853Z,1014.72
2023-02-19T10:16:44.814Z,1014.76
2023-02-19T10:17:44.809Z,1014.78
2023-02-19T10:18:44.802Z,1014.80
2023-02-19T10:19:44.796Z,1014.83
2023-02-19T10:20:44.769Z,1014.79
2023-02-19T10:21:44.769Z,1014.88
2023-02-19T10:22:44.750Z,1014.84
2023-02-19T10:23:44.761Z,1014.89
2023-02-19T10:24:44.717Z,1014.87
2023-02-19T10:25:44.745Z,1014.86
2023-02-19T10:26:44.697Z,1014.95
2023-02-19T10:27:44.702Z,1014.99
2023-02-19T10:28:44.694Z,1014.98
2023-02-19T10:29:44.671Z,1015.00
2023-02-19T10:30:44.657Z,1015.03
2023-02-19T10:31:44.729Z,1015.06
2023-02-19T10:32:44.636Z,1015.14
2023-02-19T10:33:44.640Z,1015.14
2023-02-19T10:34:44.616Z,1015.24
2023-02-19T10:35:44.606Z,1015.28
2023-02-19T10:36:44.593Z,1015.28
2023-02-19T10:37:44.586Z,1015.30
2023-02-19T10:38:44.582Z,1015.27
2023-02-19T10:39:44.576Z,1015.26
2023-02-19T10:40:44.549Z,1015.21
2023-02-19T10:41:44.579Z,1015.25
2023-02-19T10:42:44.536Z,1015.24
2023-02-19T10:43:44.554Z,1015.26
2023-02-19T10:44:44.508Z,1015.23
2023-02-19T10:45:44.500Z,1015.15
2023-02-19T10:46:44.499Z,1015.26
2023-02-19T10:47:44.486Z,1015.32
2023-02-19T10:48:44.473Z,1015.33
2023-02-19T10:49:44.460Z,1015.30
2023-02-19T10:50:44.447Z,1015.27
2023-02-19T10:51:44.439Z,1015.37
2023-02-19T10:52:44.428Z,1015.45
2023-02-19T10:53:44.448Z,1015.53
2023-02-19T10:54:44.396Z,1015.52
2023-02-19T10:55:44.393Z,1015.52
2023-02-19T10:56:44.381Z,1015.52
2023-02-19T10:57:44.375Z,1015.53
2023-02-19T10:58:44.370Z,1015.56
2023-02-19T10:59:44.353Z,1015.54
2023-02-19T11:00:44.342Z,1015.56
2023-02-19T11:01:44.384Z,1015.56
2023-02-19T11:02:44.323Z,1015.57
2023-02-19T11:03:44.324Z,1015.58
2023-02-19T11:04:44.310Z,1015.55
2023-02-19T11:05:44.310Z,1015.57
2023-02-19T11:06:44.267Z,1015.62
2023-02-19T11:07:44.268Z,1015.58
2023-02-19T11:08:44.259Z,1015.65
2023-02-19T11:09:44.244Z,1015.61
2023-02-19T11:10:44.249Z,1015.63
2023-02-19T11:11:44.222Z,1015.63
2023-02-19T11:12:44.201Z,1015.63
2023-02-19T11:13:44.223Z,1015.67
2023-02-19T11:14:44.185Z,1015.66
2023-02-19T11:15:44.173Z,1015.68
2023-02-19T11:16:44.157Z,1015.65
2023-02-19T11:17:44.155Z,1015.64
2023-02-19T11:18:44.149Z,1015.73
2023-02-19T11:19:44.134Z,1015.74
2023-02-19T11:20:44.122Z,1015.76
2023-02-19T11:21:44.109Z,1015.88
2023-02-19T11:22:44.095Z,1015.85
2023-02-19T11:23:44.103Z,1015.86
2023-02-19T11:24:44.080Z,1015.81
2023-02-19T11:25:44.066Z,1015.87
2023-02-19T11:26:44.053Z,1015.85
2023-02-19T11:27:44.049Z,1015.82
2023-02-19T11:28:44.074Z,1015.84
2023-02-19T11:29:44.030Z,1015.80
2023-02-19T11:30:44.099Z,1015.84
2023-02-19T11:31:44.063Z,1015.77
2023-02-19T11:32:44.001Z,1015.81
2023-02-19T11:33:44.031Z,1015.78
2023-02-19T11:34:43.975Z,1015.80
2023-02-19T11:35:43.965Z,1015.84
2023-02-19T11:36:43.947Z,1015.86
2023-02-19T11:37:43.947Z,1015.86
2023-02-19T11:38:43.951Z,1015.83
2023-02-19T11:39:43.933Z,1015.78
2023-02-19T11:40:43.928Z,1015.75
2023-02-19T11:41:43.911Z,1015.70
2023-02-19T11:42:43.882Z,1015.76
2023-02-19T11:43:43.909Z,1015.72
2023-02-19T11:44:43.867Z,1015.73
2023-02-19T11:45:43.861Z,1015.76
2023-02-19T11:46:43.926Z,1015.76
2023-02-19T11:47:43.833Z,1015.75
2023-02-19T11:48:43.846Z,1015.72
2023-02-19T11:49:43.818Z,1015.68
2023-02-19T11:50:43.803Z,1015.63
2023-02-19T11:51:46.103Z,1015.59
2023-02-19T11:52:43.788Z,1015.60
2023-02-19T11:53:43.784Z,1015.64
2023-02-19T11:54:43.756Z,1015.61
2023-02-19T11:55:43.761Z,1015.61
2023-02-19T11:56:43.744Z,1015.67
2023-02-19T11:57:43.732Z,1015.67
2023-02-19T11:58:43.732Z,1015.68
2023-02-19T11:59:43.710Z,1015.68
2023-02-19T12:00:43.691Z,1015.69
2023-02-19T12:01:43.759Z,1015.73
2023-02-19T12:02:43.689Z,1015.69
2023-02-19T12:03:43.676Z,1015.71
2023-02-19T12:04:43.649Z,1015.68
2023-02-19T12:05:43.649Z,1015.68